Time;durP1;ratioP1;P1;durP2;ratioP2;P2;SDS_P1;SDS_P2;PMS_P1;PMS_P2;Temp;Humidity;BMP_temperature;BMP_pressure;BME280_temperature;BME280_humidity;BME280_pressure;Samples;Min_cycle;Max_cycle;Signal;HPM_P1;HPM_P2
2023/08/29 00:02:02;;;;;;;0.63;0.30;;;;;;;12.58;87.67;96966.66;10442590;28;20057;-67
2023/08/29 00:07:23;;;;;;;0.32;0.20;;;;;;;12.58;87.72;96963.84;10441886;28;20129;-66
2023/08/29 00:12:45;;;;;;;1.30;0.38;;;;;;;12.57;87.50;96945.59;10441878;28;20037;-66
2023/08/29 00:18:06;;;;;;;0.40;0.20;;;;;;;12.55;87.43;96942.72;10456467;28;20060;-66
2023/08/29 00:23:28;;;;;;;1.02;0.50;;;;;;;12.50;87.08;96952.25;10455558;28;20045;-66
2023/08/29 00:28:51;;;;;;;0.60;0.22;;;;;;;12.39;86.90;96930.75;10456325;28;20040;-72
2023/08/29 00:34:12;;;;;;;0.40;0.20;;;;;;;12.39;87.25;96931.47;10442676;28;20041;-66
2023/08/29 00:39:32;;;;;;;0.50;0.30;;;;;;;12.36;87.12;96932.75;10428563;28;20072;-69
2023/08/29 00:44:54;;;;;;;0.80;0.30;;;;;;;12.36;87.65;96920.81;10456224;28;20049;-66
2023/08/29 00:50:15;;;;;;;0.47;0.22;;;;;;;12.43;87.55;96897.34;10456074;28;20041;-66
2023/08/29 00:55:36;;;;;;;1.45;0.30;;;;;;;12.49;87.68;96880.84;10462184;28;20506;-66
2023/08/29 01:00:57;;;;;;;0.73;0.40;;;;;;;12.55;87.54;96853.13;10448743;28;20045;-66
2023/08/29 01:06:18;;;;;;;1.02;0.50;;;;;;;12.59;87.73;96868.03;10448381;28;20475;-67
2023/08/29 01:11:58;;;;;;;2.55;0.50;;;;;;;12.61;87.52;96873.00;10448566;28;20044;-66
2023/08/29 01:17:29;;;;;;;0.68;0.35;;;;;;;12.55;87.43;96878.34;10434543;28;20094;-66
2023/08/29 01:23:08;;;;;;;1.52;0.52;;;;;;;12.66;87.62;96841.03;10448239;28;20044;-66
2023/08/29 01:28:35;;;;;;;1.25;0.77;;;;;;;12.58;86.89;96846.28;10449042;28;20069;-66
2023/08/29 01:33:59;;;;;;;0.70;0.35;;;;;;;12.53;86.83;96864.22;10447714;28;20056;-66
2023/08/29 01:39:20;;;;;;;0.95;0.40;;;;;;;12.53;87.60;96855.81;10433697;28;20505;-67
2023/08/29 01:44:41;;;;;;;0.52;0.32;;;;;;;12.58;87.73;96832.28;10447192;28;20044;-66
2023/08/29 01:50:03;;;;;;;1.33;0.40;;;;;;;12.57;87.26;96783.25;10461971;28;20047;-66
2023/08/29 01:55:24;;;;;;;1.77;0.60;;;;;;;12.55;87.08;96783.16;10433223;28;20068;-66
2023/08/29 02:00:45;;;;;;;0.95;0.63;;;;;;;12.57;87.99;96778.38;10432358;28;20041;-66
2023/08/29 02:06:06;;;;;;;1.40;0.80;;;;;;;12.65;87.82;96744.41;10445756;28;20048;-66
2023/08/29 02:11:27;;;;;;;1.17;0.63;;;;;;;12.68;87.90;96787.94;10446311;28;20049;-66
2023/08/29 02:16:51;;;;;;;;;;;;;;;12.68;87.42;96776.72;10460276;28;20468;-65
2023/08/29 02:22:12;;;;;;;1.30;0.70;;;;;;;12.80;88.07;96776.53;10445774;28;19947;-66
2023/08/29 02:27:33;;;;;;;2.75;0.77;;;;;;;12.78;87.51;96779.97;10460564;28;20044;-66
2023/08/29 02:32:55;;;;;;;0.90;0.57;;;;;;;12.82;87.68;96776.63;10445754;28;20041;-67
2023/08/29 02:38:15;;;;;;;0.88;0.47;;;;;;;12.88;87.85;96766.41;10445186;28;20116;-66
2023/08/29 02:43:36;;;;;;;0.95;0.60;;;;;;;12.93;88.02;96766.56;10459148;28;20072;-66
2023/08/29 02:48:58;;;;;;;0.57;0.40;;;;;;;12.94;87.69;96765.94;10445057;28;20037;-66
2023/08/29 02:54:19;;;;;;;0.93;0.47;;;;;;;13.01;87.42;96778.13;10430532;28;20037;-66
2023/08/29 02:59:40;;;;;;;1.20;0.60;;;;;;;13.05;87.68;96776.22;10444524;28;20118;-66
2023/08/29 03:05:01;;;;;;;1.35;0.60;;;;;;;13.01;87.04;96787.25;10459118;28;20110;-66
2023/08/29 03:10:22;;;;;;;0.80;0.50;;;;;;;13.04;87.75;96780.38;10457880;28;20493;-66
2023/08/29 03:15:44;;;;;;;0.90;0.52;;;;;;;13.06;87.57;96768.53;10442751;28;20041;-66
2023/08/29 03:21:06;;;;;;;1.00;0.50;;;;;;;13.04;87.02;96765.66;10443413;28;20076;-66
2023/08/29 03:26:27;;;;;;;0.98;0.40;;;;;;;12.96;87.14;96754.84;10443346;28;20041;-66
2023/08/29 03:31:49;;;;;;;0.82;0.40;;;;;;;12.98;87.75;96779.41;10442876;28;20052;-66
2023/08/29 03:37:10;;;;;;;0.57;0.38;;;;;;;13.03;87.75;96775.44;10442714;28;20097;-66
2023/08/29 03:42:33;;;;;;;0.75;0.40;;;;;;;13.02;87.67;96760.66;10457614;28;20045;-66
2023/08/29 03:47:54;;;;;;;0.40;0.30;;;;;;;12.97;87.62;96764.66;10442408;28;20041;-66
2023/08/29 03:53:17;;;;;;;0.60;0.30;;;;;;;12.95;87.58;96763.88;10428867;28;20124;-67
2023/08/29 03:58:38;;;;;;;0.40;0.20;;;;;;;12.93;86.84;96756.09;10428287;28;20041;-66
2023/08/29 04:04:00;;;;;;;1.05;0.15;;;;;;;12.87;87.69;96770.56;10400957;28;20081;-67
2023/08/29 04:09:21;;;;;;;0.65;0.25;;;;;;;12.88;87.33;96779.69;10400915;28;20135;-66
2023/08/29 04:14:42;;;;;;;0.28;0.20;;;;;;;12.90;87.52;96794.50;10415318;28;20076;-67
2023/08/29 04:20:12;;;;;;;0.30;0.20;;;;;;;12.93;87.88;96797.38;10415197;28;20139;-66
2023/08/29 04:25:36;;;;;;;0.35;0.20;;;;;;;12.99;88.06;96801.16;10401815;28;20415;-66
2023/08/29 04:31:09;;;;;;;0.38;0.10;;;;;;;13.03;87.80;96795.03;10400333;28;20097;-66
2023/08/29 04:36:30;;;;;;;0.38;0.20;;;;;;;13.11;87.85;96798.16;10428657;28;20435;-66
2023/08/29 04:41:51;;;;;;;0.28;0.10;;;;;;;13.11;87.61;96793.28;10427769;28;20124;-67
2023/08/29 04:47:12;;;;;;;0.40;0.10;;;;;;;13.16;87.56;96791.38;10413883;28;20065;-66
2023/08/29 04:52:34;;;;;;;0.20;0.10;;;;;;;13.19;87.42;96792.94;10400247;28;20124;-66
2023/08/29 04:57:56;;;;;;;0.20;0.00;;;;;;;13.20;87.47;96788.75;10414254;28;20076;-66
2023/08/29 05:03:17;;;;;;;0.50;0.08;;;;;;;13.27;87.10;96773.66;10413632;28;20128;-66
2023/08/29 05:08:38;;;;;;;0.20;0.10;;;;;;;13.22;86.43;96760.09;10407282;28;20117;-66
2023/08/29 05:13:59;;;;;;;0.20;0.00;;;;;;;13.25;87.06;96767.97;10409860;28;20041;-66
2023/08/29 05:19:20;;;;;;;0.20;0.00;;;;;;;13.37;86.85;96768.47;10399066;28;20068;-66
2023/08/29 05:24:41;;;;;;;0.52;0.10;;;;;;;13.27;86.39;96756.84;10421105;28;20056;-66
2023/08/29 05:30:04;;;;;;;0.20;0.10;;;;;;;13.28;86.72;96763.88;10409660;28;20041;-66
2023/08/29 05:35:25;;;;;;;0.68;0.10;;;;;;;13.31;86.52;96753.47;10427919;28;20517;-66
2023/08/29 05:40:51;;;;;;;0.28;0.10;;;;;;;13.22;86.48;96757.31;10421339;28;20432;-66
2023/08/29 05:46:11;;;;;;;0.60;0.10;;;;;;;13.23;86.78;96781.91;10404644;28;20066;-67
2023/08/29 05:51:32;;;;;;;0.20;0.10;;;;;;;13.20;87.14;96783.16;10405881;28;20458;-66
2023/08/29 05:56:53;;;;;;;0.40;0.10;;;;;;;13.32;87.32;96771.75;10420757;28;20041;-66
2023/08/29 06:02:14;;;;;;;0.63;0.20;;;;;;;13.33;87.05;96773.91;10416980;28;20080;-66
2023/08/29 06:07:35;;;;;;;0.57;0.20;;;;;;;13.31;87.07;96773.81;10432529;28;20036;-67
2023/08/29 06:12:56;;;;;;;0.63;0.20;;;;;;;13.28;86.75;96780.69;10446468;28;20072;-66
2023/08/29 06:18:17;;;;;;;0.20;0.10;;;;;;;13.25;86.89;96789.66;10432166;28;20044;-66
2023/08/29 06:23:37;;;;;;;1.13;0.10;;;;;;;13.22;87.10;96788.13;10459885;28;20053;-67
2023/08/29 06:28:58;;;;;;;0.70;0.03;;;;;;;13.32;87.11;96792.09;10461034;28;20399;-66
2023/08/29 06:34:20;;;;;;;0.10;0.03;;;;;;;13.30;87.17;96792.00;10445594;28;20116;-71
2023/08/29 06:39:42;;;;;;;0.30;0.10;;;;;;;13.37;86.86;96790.88;10459415;28;20499;-67
2023/08/29 06:45:05;;;;;;;0.20;0.10;;;;;;;13.49;86.94;96803.97;10460948;28;20449;-69
2023/08/29 06:50:28;;;;;;;0.70;0.10;;;;;;;13.57;86.65;96809.91;10462055;28;20122;-67
2023/08/29 06:55:49;;;;;;;0.30;0.20;;;;;;;13.67;86.54;96799.09;10447044;28;20514;-66
2023/08/29 07:01:10;;;;;;;0.30;0.20;;;;;;;13.74;86.81;96800.78;10444429;28;20056;-66
2023/08/29 07:06:31;;;;;;;0.38;0.10;;;;;;;13.94;86.69;96798.06;10458201;28;20052;-66
2023/08/29 07:11:52;;;;;;;0.28;0.10;;;;;;;13.99;86.33;96805.25;10444052;28;20048;-66
2023/08/29 07:17:13;;;;;;;0.10;0.10;;;;;;;14.15;86.19;96799.56;10443929;28;20072;-66
2023/08/29 07:22:34;;;;;;;1.20;0.10;;;;;;;14.22;85.61;96798.44;10457897;28;20052;-66
2023/08/29 07:27:54;;;;;;;0.13;0.10;;;;;;;14.23;85.41;96799.88;10443564;28;20076;-67
2023/08/29 07:33:15;;;;;;;0.82;0.20;;;;;;;14.31;85.51;96806.53;10457118;28;20062;-66
2023/08/29 07:38:36;;;;;;;0.50;0.20;;;;;;;14.49;85.37;96808.63;10457027;28;20521;-66
2023/08/29 07:43:56;;;;;;;3.22;0.20;;;;;;;14.41;84.22;96813.91;10442899;28;20116;-66
2023/08/29 07:49:20;;;;;;;0.35;0.10;;;;;;;14.29;83.86;96814.88;10442960;28;20049;-66
2023/08/29 07:54:41;;;;;;;0.20;0.10;;;;;;;14.40;84.16;96835.63;10442478;28;20497;-66
2023/08/29 08:00:05;;;;;;;1.20;0.20;;;;;;;14.37;83.55;96827.75;10455985;28;20502;-66
2023/08/29 08:05:26;;;;;;;0.47;0.20;;;;;;;14.49;83.21;96819.84;10394966;28;20127;-66
2023/08/29 08:10:47;;;;;;;0.40;0.20;;;;;;;14.70;82.68;96826.94;10400973;28;20108;-67
2023/08/29 08:16:08;;;;;;;0.50;0.20;;;;;;;14.55;82.29;96837.63;10415822;28;20073;-67
2023/08/29 08:21:29;;;;;;;0.25;0.10;;;;;;;14.71;82.19;96837.53;10415288;28;20476;-66
2023/08/29 08:26:49;;;;;;;0.52;0.10;;;;;;;14.80;81.95;96869.44;10400630;28;20065;-67
2023/08/29 08:32:10;;;;;;;0.35;0.10;;;;;;;14.67;81.91;96865.47;10415080;28;20041;-66
2023/08/29 08:37:34;;;;;;;0.10;0.10;;;;;;;14.95;82.25;96860.16;10400421;28;20069;-66
2023/08/29 08:42:54;;;;;;;1.00;0.50;;;;;;;15.09;80.69;96851.53;10400278;28;20473;-66
2023/08/29 08:48:15;;;;;;;0.35;0.10;;;;;;;15.27;80.75;96852.16;10386311;28;20128;-65
2023/08/29 08:53:36;;;;;;;0.80;0.10;;;;;;;15.43;80.47;96852.72;10386447;28;20045;-66
2023/08/29 08:58:58;;;;;;;0.30;0.10;;;;;;;15.51;80.05;96866.34;10400088;28;20112;-66
2023/08/29 09:04:19;;;;;;;0.75;0.08;;;;;;;15.53;79.58;96865.69;10399705;28;20050;-67
2023/08/29 09:09:40;;;;;;;0.10;0.00;;;;;;;15.58;79.60;96865.19;10399479;28;20042;-66
2023/08/29 09:15:04;;;;;;;1.55;0.10;;;;;;;15.66;79.43;96857.03;10418850;28;20069;-66
2023/08/29 09:20:29;;;;;;;0.43;0.10;;;;;;;15.83;78.87;96877.28;10412986;28;20069;-67
2023/08/29 09:25:54;;;;;;;0.90;0.10;;;;;;;15.68;78.73;96871.19;10415962;28;20598;-69
2023/08/29 09:31:15;;;;;;;0.10;0.10;;;;;;;15.54;79.31;96872.75;10392140;28;20514;-68
2023/08/29 09:36:36;;;;;;;0.20;0.10;;;;;;;15.50;79.19;96878.97;10399911;28;20124;-67
2023/08/29 09:42:01;;;;;;;0.80;0.10;;;;;;;15.52;79.47;96881.13;10416589;28;20057;-66
2023/08/29 09:47:25;;;;;;;0.70;0.10;;;;;;;15.63;79.17;96880.88;10405777;28;20128;-66
2023/08/29 09:52:46;;;;;;;0.20;0.10;;;;;;;15.71;78.73;96886.75;10400717;28;20486;-66
2023/08/29 09:58:07;;;;;;;0.40;0.10;;;;;;;15.65;78.72;96895.00;10403574;28;20072;-67
2023/08/29 10:03:28;;;;;;;0.10;0.00;;;;;;;15.79;78.98;96896.84;10443021;28;20081;-67
2023/08/29 10:08:55;;;;;;;1.25;0.10;;;;;;;15.85;78.66;96897.03;10446479;28;20171;-66
2023/08/29 10:14:16;;;;;;;0.60;0.10;;;;;;;16.30;78.91;96893.56;10459904;28;20120;-66
2023/08/29 10:19:37;;;;;;;1.83;0.10;;;;;;;16.54;77.59;96891.53;10445977;28;20168;-67
2023/08/29 10:24:59;;;;;;;0.50;0.10;;;;;;;16.57;77.50;96892.31;10445688;28;20457;-68
2023/08/29 10:30:22;;;;;;;1.77;0.10;;;;;;;16.51;77.08;96898.47;10445677;28;20399;-67
2023/08/29 10:35:42;;;;;;;0.73;0.03;;;;;;;16.41;76.83;96905.91;10445401;28;20056;-67
2023/08/29 10:41:05;;;;;;;0.47;0.10;;;;;;;16.29;76.92;96894.94;10445129;28;20171;-67
2023/08/29 10:46:25;;;;;;;0.20;0.00;;;;;;;16.38;76.84;96893.09;10458979;28;20124;-66
2023/08/29 10:52:06;;;;;;;0.20;0.10;;;;;;;16.45;76.09;96900.38;10459547;28;20060;-67
2023/08/29 10:57:27;;;;;;;1.20;0.10;;;;;;;16.36;76.07;96905.03;10458449;28;20075;-67
2023/08/29 11:02:48;;;;;;;0.50;0.20;;;;;;;16.72;76.41;96905.47;10459177;28;20060;-66
2023/08/29 11:08:22;;;;;;;1.13;0.10;;;;;;;17.43;75.09;96904.69;10444068;28;20041;-66
2023/08/29 11:13:55;;;;;;;;;;;;;;;18.16;72.97;96903.06;10457968;28;20128;-66
2023/08/29 11:19:16;;;;;;;1.07;0.10;;;;;;;18.31;72.20;96898.47;10458565;28;20361;-65
2023/08/29 11:24:37;;;;;;;0.20;0.10;;;;;;;17.93;72.20;96878.47;10443400;28;20129;-65
2023/08/29 11:30:00;;;;;;;0.45;0.10;;;;;;;17.88;72.71;96883.31;10458234;28;20171;-65
2023/08/29 11:35:42;;;;;;;1.80;0.20;;;;;;;18.07;72.22;96884.50;10456246;28;20399;-65
2023/08/29 11:41:05;;;;;;;0.82;0.17;;;;;;;17.91;71.88;96893.28;10442847;28;20048;-66
2023/08/29 11:46:38;;;;;;;0.20;0.10;;;;;;;17.59;71.72;96903.69;10456529;28;20456;-65
2023/08/29 11:51:59;;;;;;;0.30;0.10;;;;;;;17.14;71.92;96914.44;10457265;28;20124;-65
2023/08/29 11:57:20;;;;;;;3.83;0.10;;;;;;;16.65;72.38;96908.72;10442264;28;20120;-65
2023/08/29 12:02:41;;;;;;;0.20;0.10;;;;;;;16.35;72.88;96902.88;10456780;28;20116;-64
2023/08/29 12:08:02;;;;;;;0.85;0.10;;;;;;;16.19;73.50;96906.59;10442016;28;20049;-65
2023/08/29 12:13:22;;;;;;;0.47;0.10;;;;;;;16.11;74.01;96909.16;10455838;28;20503;-66
2023/08/29 12:18:43;;;;;;;0.47;0.13;;;;;;;16.37;74.17;96894.50;10456496;28;20056;-65
2023/08/29 12:24:11;;;;;;;0.40;0.13;;;;;;;16.69;73.94;96901.13;10456675;28;20538;-65
2023/08/29 12:29:32;;;;;;;0.20;0.08;;;;;;;16.55;73.42;96903.50;10456199;28;20124;-65
2023/08/29 12:34:54;;;;;;;1.85;0.10;;;;;;;16.53;73.75;96900.63;10441384;28;20123;-65
2023/08/29 12:40:16;;;;;;;0.70;0.10;;;;;;;16.51;73.40;96909.03;10441473;28;20065;-67
2023/08/29 12:45:37;;;;;;;0.03;0.00;;;;;;;16.58;73.54;96919.09;10425071;28;20084;-64
2023/08/29 12:51:17;;;;;;;0.68;0.10;;;;;;;16.58;73.45;96924.72;10452614;28;20482;-64
2023/08/29 12:56:37;;;;;;;0.40;0.10;;;;;;;16.77;73.71;96923.22;10449265;28;20068;-64
2023/08/29 13:01:58;;;;;;;0.47;0.13;;;;;;;16.95;73.16;96915.31;10449113;28;20073;-64
2023/08/29 13:07:19;;;;;;;0.93;0.10;;;;;;;17.45;73.23;96907.56;10463445;28;20124;-65
2023/08/29 13:12:40;;;;;;;0.30;0.00;;;;;;;17.57;72.21;96918.47;10463409;28;20060;-65
2023/08/29 13:18:02;;;;;;;1.83;0.10;;;;;;;17.63;72.02;96910.16;10462233;28;20116;-65
2023/08/29 13:23:23;;;;;;;0.82;0.10;;;;;;;17.85;71.52;96912.88;10462934;28;20045;-65
2023/08/29 13:28:44;;;;;;;0.32;0.20;;;;;;;18.00;70.68;96903.38;10462726;28;20044;-65
2023/08/29 13:34:08;;;;;;;0.52;0.20;;;;;;;18.29;70.88;96892.78;10462512;28;20067;-65
2023/08/29 13:39:28;;;;;;;0.60;0.20;;;;;;;18.93;70.24;96894.97;10462383;28;20065;-66
2023/08/29 13:44:54;;;;;;;1.17;0.20;;;;;;;19.09;68.51;96893.16;10462177;28;20040;-66
2023/08/29 13:50:17;;;;;;;1.10;0.20;;;;;;;18.90;68.65;96902.66;10461162;28;20075;-66
2023/08/29 13:55:37;;;;;;;1.40;0.20;;;;;;;18.34;67.88;96905.63;10461956;28;20398;-66
2023/08/29 14:00:58;;;;;;;0.20;0.10;;;;;;;17.85;68.22;96912.16;10445670;28;20163;-66
2023/08/29 14:06:19;;;;;;;1.33;0.10;;;;;;;17.29;68.52;96914.88;10461243;28;20051;-66
2023/08/29 14:11:40;;;;;;;0.57;0.20;;;;;;;17.05;69.54;96906.41;10461095;28;20068;-66
2023/08/29 14:17:00;;;;;;;0.80;0.20;;;;;;;16.79;69.60;96918.38;10446023;28;20376;-65
2023/08/29 14:22:21;;;;;;;0.25;0.10;;;;;;;16.70;69.85;96907.53;10460657;28;20071;-65
2023/08/29 14:27:42;;;;;;;1.52;0.20;;;;;;;16.66;69.91;96885.53;10460618;28;20056;-66
2023/08/29 14:33:03;;;;;;;0.60;0.30;;;;;;;16.65;69.94;96895.38;10459489;28;20068;-65
2023/08/29 14:38:24;;;;;;;1.38;0.20;;;;;;;16.64;70.01;96904.47;10460131;28;20103;-66
2023/08/29 14:43:44;;;;;;;1.40;0.20;;;;;;;16.57;69.96;96895.13;10459126;28;20171;-66
2023/08/29 14:49:05;;;;;;;0.38;0.20;;;;;;;16.59;70.34;96903.63;10459671;28;20065;-67
2023/08/29 14:54:26;;;;;;;0.55;0.20;;;;;;;16.74;70.33;96894.25;10459536;28;20498;-67
2023/08/29 14:59:47;;;;;;;1.58;0.30;;;;;;;16.84;70.57;96900.19;10459163;28;20447;-66
2023/08/29 15:05:09;;;;;;;0.60;0.20;;;;;;;16.72;70.48;96922.38;10458771;28;20080;-66
2023/08/29 15:10:30;;;;;;;1.35;0.20;;;;;;;16.58;70.80;96930.34;10457893;28;20502;-66
2023/08/29 15:15:51;;;;;;;2.10;0.20;;;;;;;16.51;70.86;96932.28;10443767;28;20087;-66
2023/08/29 15:21:12;;;;;;;0.45;0.20;;;;;;;16.60;71.24;96938.91;10458501;28;20167;-66
2023/08/29 15:26:32;;;;;;;0.63;0.20;;;;;;;16.72;71.05;96944.94;10458182;28;20077;-66
2023/08/29 15:31:53;;;;;;;0.75;0.20;;;;;;;16.85;71.13;96951.66;10458273;28;20124;-66
2023/08/29 15:37:14;;;;;;;4.78;0.30;;;;;;;17.01;70.87;96949.31;10442753;28;20144;-65
2023/08/29 15:42:34;;;;;;;0.85;0.20;;;;;;;17.13;70.89;96946.13;10456759;28;20123;-65
2023/08/29 15:47:55;;;;;;;1.73;0.20;;;;;;;17.25;70.93;96935.19;10442785;28;20638;-67
2023/08/29 15:53:16;;;;;;;0.85;0.35;;;;;;;17.29;70.55;96937.44;10457271;28;20159;-67
2023/08/29 15:58:37;;;;;;;2.55;0.40;;;;;;;17.23;70.48;96934.44;10456378;28;20116;-65
2023/08/29 16:03:58;;;;;;;2.25;0.30;;;;;;;17.17;70.48;96935.69;10455742;28;20438;-65
2023/08/29 16:09:18;;;;;;;1.83;0.20;;;;;;;17.27;70.82;96945.81;10441984;28;20112;-65
2023/08/29 16:14:39;;;;;;;0.30;0.20;;;;;;;17.40;70.48;96939.16;10441522;28;20041;-65
2023/08/29 16:20:04;;;;;;;0.25;0.15;;;;;;;17.41;70.05;96946.22;10456688;28;20045;-65
2023/08/29 16:25:26;;;;;;;1.80;0.20;;;;;;;17.40;70.21;96948.34;10456136;28;20084;-65
2023/08/29 16:30:47;;;;;;;0.68;0.25;;;;;;;17.33;70.18;96958.00;10456465;28;20114;-65
2023/08/29 16:36:08;;;;;;;1.30;0.17;;;;;;;17.20;69.89;96947.03;10441296;28;20391;-65
2023/08/29 16:41:29;;;;;;;1.45;0.20;;;;;;;17.06;70.25;96956.50;10441223;28;20516;-66
2023/08/29 16:46:50;;;;;;;1.35;0.20;;;;;;;16.83;70.22;96955.13;10441282;28;20144;-65
2023/08/29 16:52:10;;;;;;;0.50;0.20;;;;;;;16.65;70.47;96962.28;10455926;28;20495;-65
2023/08/29 16:57:31;;;;;;;0.40;0.25;;;;;;;16.46;70.77;96952.50;10455821;28;20483;-67
2023/08/29 17:02:52;;;;;;;1.08;0.30;;;;;;;16.37;71.02;96965.63;10455568;28;20495;-66
2023/08/29 17:08:12;;;;;;;0.68;0.20;;;;;;;16.31;71.28;96983.06;10454678;28;20048;-66
2023/08/29 17:13:34;;;;;;;1.10;0.10;;;;;;;16.24;71.54;96972.22;10440548;28;20112;-67
2023/08/29 17:18:55;;;;;;;2.58;0.10;;;;;;;16.08;71.57;96980.84;10455284;28;20069;-67
2023/08/29 17:24:16;;;;;;;15.90;1.70;;;;;;;16.00;71.85;96975.66;10455428;28;20118;-68
2023/08/29 17:29:37;;;;;;;2.47;0.40;;;;;;;15.89;71.88;96987.22;10455111;28;20037;-66
2023/08/29 17:34:57;;;;;;;4.63;0.60;;;;;;;15.81;72.01;96989.75;10429183;28;20178;-66
2023/08/29 17:40:18;;;;;;;0.40;0.10;;;;;;;15.68;72.21;96986.53;10462383;28;20072;-66
2023/08/29 17:45:43;;;;;;;1.38;0.10;;;;;;;15.63;72.40;96984.94;10447362;28;20080;-66
2023/08/29 17:51:04;;;;;;;0.60;0.00;;;;;;;15.56;72.89;96982.53;10461040;28;20061;-66
2023/08/29 17:56:25;;;;;;;0.20;0.10;;;;;;;15.46;72.99;96977.97;10461701;28;20049;-66
2023/08/29 18:01:46;;;;;;;0.38;0.03;;;;;;;15.49;73.36;96984.41;10460794;28;20049;-67
2023/08/29 18:07:08;;;;;;;2.83;0.03;;;;;;;15.47;73.19;96975.88;10461447;28;20510;-68
2023/08/29 18:12:29;;;;;;;1.08;0.10;;;;;;;15.41;73.64;96972.84;10446621;28;20052;-66
2023/08/29 18:17:50;;;;;;;0.10;0.10;;;;;;;15.35;73.84;96962.13;10461120;28;20073;-66
2023/08/29 18:23:11;;;;;;;0.15;0.10;;;;;;;15.31;73.89;96956.31;10460945;28;20064;-67
2023/08/29 18:28:32;;;;;;;0.63;0.10;;;;;;;15.26;74.07;96966.00;10460601;28;20037;-66
2023/08/29 18:33:54;;;;;;;0.20;0.10;;;;;;;15.19;73.83;96978.38;10460352;28;20504;-66
2023/08/29 18:39:15;;;;;;;1.10;0.13;;;;;;;15.09;73.96;97006.81;10445453;28;20128;-66
2023/08/29 18:44:36;;;;;;;1.35;0.30;;;;;;;15.07;74.63;97012.38;10459784;28;20072;-66
2023/08/29 18:49:58;;;;;;;0.57;0.17;;;;;;;15.10;75.08;97008.28;10460080;28;20091;-66
2023/08/29 18:55:19;;;;;;;1.85;0.10;;;;;;;15.13;75.41;97011.88;10459440;28;20128;-66
2023/08/29 19:00:44;;;;;;;0.15;0.10;;;;;;;15.17;75.55;96995.91;10458375;28;20068;-65
2023/08/29 19:06:08;;;;;;;0.43;0.10;;;;;;;15.17;75.83;96990.28;10444465;28;20132;-66
2023/08/29 19:11:30;;;;;;;3.08;0.10;;;;;;;15.22;75.81;96979.16;10444031;28;20136;-65
2023/08/29 19:16:51;;;;;;;1.33;0.20;;;;;;;15.20;75.92;96979.81;10458926;28;20123;-66
2023/08/29 19:22:12;;;;;;;0.40;0.20;;;;;;;15.13;75.61;96984.47;10443572;28;20479;-65
2023/08/29 19:27:33;;;;;;;0.63;0.20;;;;;;;15.21;76.09;96978.44;10443614;28;20061;-66
2023/08/29 19:32:59;;;;;;;1.05;0.40;;;;;;;15.25;76.11;96991.94;10458123;28;20117;-66
2023/08/29 19:38:20;;;;;;;0.17;0.10;;;;;;;15.21;75.99;96988.97;10457802;28;20132;-66
2023/08/29 19:43:41;;;;;;;0.40;0.20;;;;;;;15.16;76.44;97000.06;10442833;28;20125;-65
2023/08/29 19:49:02;;;;;;;0.50;0.17;;;;;;;15.22;76.72;97004.47;10457826;28;20037;-65
2023/08/29 19:54:23;;;;;;;1.08;0.20;;;;;;;15.21;76.46;97017.81;10442724;28;20125;-65
2023/08/29 19:59:44;;;;;;;2.50;0.20;;;;;;;15.20;76.64;97015.66;10456670;28;20112;-65
2023/08/29 20:05:05;;;;;;;0.60;0.20;;;;;;;15.25;76.61;97001.09;10456979;28;20061;-65
2023/08/29 20:10:25;;;;;;;2.85;0.30;;;;;;;15.23;76.54;97000.28;10456186;28;20534;-64
2023/08/29 20:15:46;;;;;;;3.15;0.20;;;;;;;15.20;76.64;97013.56;10441789;28;20448;-65
2023/08/29 20:21:07;;;;;;;1.73;0.20;;;;;;;15.18;76.59;97008.56;10456856;28;20120;-65
2023/08/29 20:26:27;;;;;;;0.30;0.20;;;;;;;15.16;76.96;97022.56;10457003;28;20076;-65
2023/08/29 20:31:48;;;;;;;1.33;0.20;;;;;;;15.18;76.71;97010.66;10455659;28;20460;-65
2023/08/29 20:37:09;;;;;;;2.28;0.20;;;;;;;15.18;76.80;97017.00;10456158;28;20479;-65
2023/08/29 20:42:30;;;;;;;1.23;0.20;;;;;;;15.14;76.76;97024.56;10441174;28;20071;-65
2023/08/29 20:47:50;;;;;;;1.02;0.20;;;;;;;15.07;76.94;97026.44;10456085;28;20056;-65
2023/08/29 20:53:11;;;;;;;1.05;0.40;;;;;;;15.00;77.12;97026.84;10456011;28;20472;-65
2023/08/29 20:58:32;;;;;;;0.43;0.20;;;;;;;14.89;77.15;97023.63;10455946;28;20121;-65
2023/08/29 21:03:52;;;;;;;2.15;0.20;;;;;;;14.83;77.50;97019.84;10454496;28;20048;-66
2023/08/29 21:09:13;;;;;;;0.70;0.30;;;;;;;14.84;77.53;97019.19;10442680;28;20064;-65
2023/08/29 21:14:34;;;;;;;1.08;0.20;;;;;;;14.81;77.57;97012.06;10448588;28;20073;-65
2023/08/29 21:19:55;;;;;;;0.20;0.10;;;;;;;14.76;77.42;97002.03;10463532;28;20060;-66
2023/08/29 21:25:16;;;;;;;2.35;0.40;;;;;;;14.77;77.50;96997.16;10434351;28;20580;-66
2023/08/29 21:30:38;;;;;;;1.92;0.30;;;;;;;14.74;77.71;96990.00;10463066;28;20456;-66
2023/08/29 21:35:59;;;;;;;2.73;0.40;;;;;;;14.72;77.78;96987.13;10445350;28;20395;-66
2023/08/29 21:41:20;;;;;;;0.45;0.30;;;;;;;14.76;78.09;96990.78;10462527;28;20120;-66
2023/08/29 21:46:41;;;;;;;2.17;0.20;;;;;;;14.79;78.20;96997.94;10447486;28;20045;-66
2023/08/29 21:52:02;;;;;;;2.85;0.30;;;;;;;14.79;78.08;96995.13;10447951;28;20037;-66
2023/08/29 21:57:23;;;;;;;0.88;0.30;;;;;;;14.76;77.71;96987.97;10461896;28;20045;-66
2023/08/29 22:02:44;;;;;;;1.52;0.30;;;;;;;14.69;78.28;96977.16;10461818;28;20126;-66
2023/08/29 22:08:04;;;;;;;3.85;0.30;;;;;;;14.64;78.04;96978.38;10446700;28;20041;-66
2023/08/29 22:13:26;;;;;;;2.28;0.45;;;;;;;14.57;78.30;96983.75;10446497;28;20449;-66
2023/08/29 22:18:47;;;;;;;1.58;0.25;;;;;;;14.58;78.25;96985.19;10460044;28;20436;-66
2023/08/29 22:24:08;;;;;;;4.03;0.63;;;;;;;14.56;78.23;96982.28;10446089;28;20041;-66
2023/08/29 22:29:29;;;;;;;3.38;0.60;;;;;;;14.58;78.23;96965.53;10445985;28;20463;-66
2023/08/29 22:34:51;;;;;;;1.73;0.43;;;;;;;14.60;78.18;96957.19;10446203;28;20124;-66
2023/08/29 22:40:12;;;;;;;2.90;0.73;;;;;;;14.57;78.05;96954.94;10445401;28;20083;-67
2023/08/29 22:45:33;;;;;;;1.70;0.40;;;;;;;14.56;78.27;96962.63;10431424;28;20073;-66
2023/08/29 22:50:54;;;;;;;1.20;0.38;;;;;;;14.54;78.26;96942.91;10445288;28;20178;-66
2023/08/29 22:56:16;;;;;;;1.35;0.50;;;;;;;14.51;78.20;96932.97;10444717;28;20120;-66
2023/08/29 23:01:37;;;;;;;0.95;0.40;;;;;;;14.45;78.31;96943.94;10458580;28;20075;-67
2023/08/29 23:07:02;;;;;;;5.45;0.60;;;;;;;14.45;78.22;96938.31;10458253;28;20406;-66
2023/08/29 23:12:23;;;;;;;0.98;0.50;;;;;;;14.44;78.38;96941.75;10444443;28;20064;-66
2023/08/29 23:17:45;;;;;;;1.25;0.55;;;;;;;14.51;77.99;96955.41;10443753;28;20049;-67
2023/08/29 23:23:06;;;;;;;1.58;0.50;;;;;;;14.55;78.23;96935.19;10458695;28;20052;-66
2023/08/29 23:28:27;;;;;;;2.85;0.50;;;;;;;14.57;78.09;96944.44;10458537;28;20113;-66
2023/08/29 23:33:52;;;;;;;1.73;0.50;;;;;;;14.56;78.00;96937.34;10457437;28;20079;-66
2023/08/29 23:39:14;;;;;;;1.63;0.47;;;;;;;14.62;78.15;96938.97;10456834;28;20071;-66
2023/08/29 23:44:35;;;;;;;2.03;0.30;;;;;;;14.63;77.87;96940.41;10443013;28;20049;-66
2023/08/29 23:49:56;;;;;;;0.68;0.30;;;;;;;14.61;78.02;96949.47;10460212;28;20509;-68
2023/08/29 23:55:17;;;;;;;0.82;0.32;;;;;;;14.58;77.90;96951.50;10447650;28;20041;-72
